Amboy, Indiana
Current Conditions -  °F | °C
As of 8:55 PM on Monday 24 Nov 2014 (Local Time) from KOKK Reporting Station
Overcast Overcast  
Wind Chill: 21°   Ceiling: 2300
Heat Index: 34°   Visibility: 10mi
Dew Point: 27°   Wind: 28mph
Humidity: 75%   Direction: 260°W
Pressure: 29.81"   Gusts: 41mph
Location:  40.6°N, 85.93°W
Report Text: KOKK 250155Z AUTO 26024G36KT 10SM BKN023 OVC030 01/M03 A2981 RMK AO1
Loading
Personal Weather Stations






























Interactive Weather Map New forecast layout! Learn more

10-Day Weather Forecast

Advertisements
Track Severe Weather on mobile